»·PEaware :: PAA576 KLAS-KPHX

PAA576 :: KLAS-KPHX

FLIGHT INFORMATION

Flight Status: Arrived
Operator:
PanAm
More flights by this operator :: More flights under this callsign
Pilot: Anonymous 8274 (8274)
Aircraft: BOEING 727-200
(B722)
More flights by this aircraft type
Origin: KLAS McCarran Intl
United States
Destination: KPHX Phoenix Sky Harbor Intl
United States
More flights between these airports :: More routes between these airports
Route: HOOVR6 DRK COYOT4
File this flight plan on PilotEdge
Remarks:
Altitude:
(Current/Filed)
25,000ft
Speed:
(Current/Filed)
460kts
Departed: 24-Aug-18 09:00 PM
Arrived: 24-Aug-18 09:51 PM
Distance/Time
Traveled:
222nm/0:50
Distance/Time
To Go:
Arrived

Flight Plot

Page will automatically refresh every two minutes.

Flight plan parsing failed; only flown route is shown


Map Options




Map Legend


Flown Route
Filed Route
Departure Airport
Arrival Airport
Navaid (VOR, NDB)
Fix

Horizontal Profiles

Position Reports

Time Latitude Longitude Heading Altitude Ground
Speed
24-Aug-18 20:19 36.082976 -115.138714 226 2123ft 0kts
24-Aug-18 20:20 36.082976 -115.138714 226 2123ft 0kts
24-Aug-18 20:21 36.082976 -115.138714 226 2123ft 0kts
24-Aug-18 20:22 36.082976 -115.138714 226 2123ft 0kts
24-Aug-18 20:23 36.082976 -115.138714 226 2123ft 0kts
24-Aug-18 20:24 36.082976 -115.138714 226 2123ft 0kts
24-Aug-18 20:25 36.082976 -115.138714 226 2123ft 0kts
24-Aug-18 20:26 36.082976 -115.138714 226 2123ft 0kts
24-Aug-18 20:27 36.082976 -115.138714 226 2123ft 0kts
24-Aug-18 20:28 36.082976 -115.138714 226 2123ft 0kts
24-Aug-18 20:29 36.082976 -115.138714 226 2123ft 0kts
24-Aug-18 20:30 36.082976 -115.138714 226 2123ft 0kts
24-Aug-18 20:31 36.082976 -115.138714 226 2123ft 0kts
24-Aug-18 20:32 36.082976 -115.138714 226 2123ft 0kts
24-Aug-18 20:33 36.082976 -115.138714 226 2123ft 0kts
24-Aug-18 20:34 36.082976 -115.138714 226 2123ft 0kts
24-Aug-18 20:35 36.082976 -115.138714 226 2123ft 0kts
24-Aug-18 20:36 36.082976 -115.138714 226 2123ft 0kts
24-Aug-18 20:37 36.082976 -115.138714 226 2123ft 0kts
24-Aug-18 20:38 36.082976 -115.138714 226 2123ft 0kts
24-Aug-18 20:39 36.082976 -115.138714 226 2123ft 0kts
24-Aug-18 20:40 36.083224 -115.138388 226 2123ft 2kts
24-Aug-18 20:41 36.083627 -115.137951 195 2123ft 2kts
24-Aug-18 20:42 36.084148 -115.138198 119 2123ft 2kts
24-Aug-18 20:43 36.084208 -115.138534 88 2123ft 0kts
24-Aug-18 20:44 36.084208 -115.138534 88 2123ft 0kts
24-Aug-18 20:45 36.084208 -115.138532 88 2123ft 0kts
24-Aug-18 20:46 36.083755 -115.134455 136 2123ft 18kts
24-Aug-18 20:47 36.079153 -115.132964 180 2123ft 8kts
24-Aug-18 20:48 36.079116 -115.132965 180 2123ft 0kts
24-Aug-18 20:49 36.078245 -115.135461 270 2123ft 22kts
24-Aug-18 20:50 36.078241 -115.140100 270 2123ft 0kts
24-Aug-18 20:51 36.078241 -115.140100 270 2123ft 0kts
24-Aug-18 20:52 36.078263 -115.143435 274 2123ft 16kts
24-Aug-18 20:53 36.078726 -115.150556 275 2123ft 18kts
24-Aug-18 20:54 36.080219 -115.154215 334 2123ft 15kts
24-Aug-18 20:55 36.085045 -115.157007 334 2123ft 21kts
24-Aug-18 20:56 36.090268 -115.156088 25 2123ft 19kts
24-Aug-18 20:57 36.095158 -115.153288 24 2123ft 19kts
24-Aug-18 20:58 36.097932 -115.152370 304 2123ft 0kts
24-Aug-18 20:59 36.097984 -115.153891 205 2123ft 0kts
24-Aug-18 21:00 36.097971 -115.153899 205 2123ft 1kts
24-Aug-18 21:01 36.072587 -115.168290 203 2894ft 155kts
24-Aug-18 21:02 36.028955 -115.193294 218 4770ft 204kts
24-Aug-18 21:03 35.990404 -115.255397 231 7137ft 257kts
24-Aug-18 21:04 35.923972 -115.259751 131 9723ft 299kts
24-Aug-18 21:05 35.913091 -115.159293 91 12691ft 320kts
24-Aug-18 21:06 35.912192 -115.044056 91 15046ft 350kts
24-Aug-18 21:07 35.898499 -114.926106 130 16944ft 369kts
24-Aug-18 21:08 35.824202 -114.835072 126 18877ft 389kts
24-Aug-18 21:09 35.795871 -114.705474 100 20896ft 402kts
24-Aug-18 21:10 35.774514 -114.568799 100 22760ft 412kts
24-Aug-18 21:11 35.752662 -114.428527 100 24429ft 422kts
24-Aug-18 21:12 35.730353 -114.285163 100 24907ft 435kts
24-Aug-18 21:13 35.708371 -114.143276 100 24980ft 415kts
24-Aug-18 21:14 35.690016 -114.004990 96 25047ft 409kts
24-Aug-18 21:15 35.674613 -113.865500 98 25054ft 422kts
24-Aug-18 21:16 35.653706 -113.720258 107 25055ft 441kts
24-Aug-18 21:17 35.618486 -113.572732 106 25053ft 459kts
24-Aug-18 21:18 35.605353 -113.416637 92 25048ft 470kts
24-Aug-18 21:19 35.575782 -113.260605 104 25049ft 481kts
24-Aug-18 21:20 35.543428 -113.100354 103 25047ft 484kts
24-Aug-18 21:21 35.512876 -112.939824 101 25048ft 480kts
24-Aug-18 21:22 35.482397 -112.782059 103 25050ft 478kts
24-Aug-18 21:23 35.451256 -112.624350 103 25262ft 474kts
24-Aug-18 21:24 35.420979 -112.467672 103 25267ft 476kts
24-Aug-18 21:25 35.381620 -112.316828 129 25265ft 471kts
24-Aug-18 21:26 35.268476 -112.265254 196 25267ft 445kts
24-Aug-18 21:27 35.150961 -112.309898 201 25263ft 443kts
24-Aug-18 21:28 35.064767 -112.372914 216 25263ft 436kts
24-Aug-18 21:29 34.946565 -112.468756 215 25181ft 440kts
24-Aug-18 21:30 34.855136 -112.483287 167 25189ft 452kts
24-Aug-18 21:31 34.742150 -112.463121 179 24004ft 403kts
24-Aug-18 21:32 34.646120 -112.402053 139 22144ft 406kts
24-Aug-18 21:33 34.540558 -112.311713 140 20185ft 392kts
24-Aug-18 21:34 34.464840 -112.256873 155 19069ft 378kts
24-Aug-18 21:35 34.368741 -112.212374 161 16877ft 359kts
24-Aug-18 21:36 34.278073 -112.178049 164 14846ft 336kts
24-Aug-18 21:37 34.173428 -112.145549 168 13140ft 318kts
24-Aug-18 21:38 34.105270 -112.126281 170 12989ft 296kts
24-Aug-18 21:39 34.020019 -112.105875 170 12918ft 323kts
24-Aug-18 21:40 33.930809 -112.098574 180 12120ft 327kts
24-Aug-18 21:41 33.844141 -112.110899 190 10335ft 329kts
24-Aug-18 21:42 33.762267 -112.128030 190 8373ft 282kts
24-Aug-18 21:43 33.687148 -112.143801 190 6460ft 271kts
24-Aug-18 21:44 33.618113 -112.173606 210 4580ft 267kts
24-Aug-18 21:45 33.552727 -112.209753 179 3699ft 250kts
24-Aug-18 21:46 33.487311 -112.210095 179 2865ft 214kts
24-Aug-18 21:47 33.443502 -112.191247 109 2934ft 166kts
24-Aug-18 21:48 33.440824 -112.139752 93 2953ft 141kts
24-Aug-18 21:49 33.440920 -112.096566 93 2352ft 126kts
24-Aug-18 21:50 33.440914 -112.053606 93 1569ft 129kts
24-Aug-18 21:51 33.440834 -112.013188 90 1121ft 79kts
24-Aug-18 21:52 33.439933 -112.004685 179 1121ft 0kts
24-Aug-18 21:53 33.439051 -112.004054 91 1121ft 12kts
24-Aug-18 21:54 33.438477 -111.998281 177 1121ft 10kts

Navigation Log

Ident Type
Flight plan parsing failed, navigation log unavailable